sensor_id;sensor_type;location;lat;lon;timestamp;P1;durP1;ratioP1;P2;durP2;ratioP2
2029;SDS011;1020;48.854;8.830;2023-06-04T00:01:28;6.70;;;6.10;;
2029;SDS011;1020;48.854;8.830;2023-06-04T00:03:56;5.93;;;5.43;;
2029;SDS011;1020;48.854;8.830;2023-06-04T00:06:22;5.67;;;5.17;;
2029;SDS011;1020;48.854;8.830;2023-06-04T00:08:49;7.80;;;7.20;;
2029;SDS011;1020;48.854;8.830;2023-06-04T00:11:16;6.70;;;6.20;;
2029;SDS011;1020;48.854;8.830;2023-06-04T00:13:43;8.13;;;7.13;;
2029;SDS011;1020;48.854;8.830;2023-06-04T00:16:09;6.03;;;5.53;;
2029;SDS011;1020;48.854;8.830;2023-06-04T00:18:36;5.67;;;5.13;;
2029;SDS011;1020;48.854;8.830;2023-06-04T00:21:04;6.93;;;6.37;;
2029;SDS011;1020;48.854;8.830;2023-06-04T00:23:31;6.63;;;4.80;;
2029;SDS011;1020;48.854;8.830;2023-06-04T00:25:58;6.07;;;5.47;;
2029;SDS011;1020;48.854;8.830;2023-06-04T00:28:24;5.70;;;5.20;;
2029;SDS011;1020;48.854;8.830;2023-06-04T00:30:51;5.33;;;4.93;;
2029;SDS011;1020;48.854;8.830;2023-06-04T00:33:18;6.33;;;5.10;;
2029;SDS011;1020;48.854;8.830;2023-06-04T00:35:45;6.50;;;5.77;;
2029;SDS011;1020;48.854;8.830;2023-06-04T00:38:13;5.33;;;4.90;;
2029;SDS011;1020;48.854;8.830;2023-06-04T00:40:39;6.20;;;5.50;;
2029;SDS011;1020;48.854;8.830;2023-06-04T00:43:06;6.10;;;5.60;;
2029;SDS011;1020;48.854;8.830;2023-06-04T00:45:34;6.33;;;5.70;;
2029;SDS011;1020;48.854;8.830;2023-06-04T00:48:01;5.67;;;5.17;;
2029;SDS011;1020;48.854;8.830;2023-06-04T00:50:28;6.60;;;5.10;;
2029;SDS011;1020;48.854;8.830;2023-06-04T00:52:55;5.60;;;5.10;;
2029;SDS011;1020;48.854;8.830;2023-06-04T00:55:24;5.90;;;5.40;;
2029;SDS011;1020;48.854;8.830;2023-06-04T00:57:50;8.90;;;6.80;;
2029;SDS011;1020;48.854;8.830;2023-06-04T01:00:17;6.23;;;5.63;;
2029;SDS011;1020;48.854;8.830;2023-06-04T01:02:45;6.37;;;5.77;;
2029;SDS011;1020;48.854;8.830;2023-06-04T01:05:16;7.20;;;5.33;;
2029;SDS011;1020;48.854;8.830;2023-06-04T01:07:49;6.03;;;5.43;;
2029;SDS011;1020;48.854;8.830;2023-06-04T01:10:17;5.93;;;5.37;;
2029;SDS011;1020;48.854;8.830;2023-06-04T01:12:45;6.00;;;5.50;;
2029;SDS011;1020;48.854;8.830;2023-06-04T01:15:12;6.40;;;5.60;;
2029;SDS011;1020;48.854;8.830;2023-06-04T01:17:39;6.37;;;5.87;;
2029;SDS011;1020;48.854;8.830;2023-06-04T01:20:24;5.47;;;5.00;;
2029;SDS011;1020;48.854;8.830;2023-06-04T01:23:05;5.70;;;5.20;;
2029;SDS011;1020;48.854;8.830;2023-06-04T01:25:54;5.33;;;4.90;;
2029;SDS011;1020;48.854;8.830;2023-06-04T01:28:23;6.20;;;5.50;;
2029;SDS011;1020;48.854;8.830;2023-06-04T01:30:52;5.63;;;4.90;;
2029;SDS011;1020;48.854;8.830;2023-06-04T01:33:21;5.13;;;4.70;;
2029;SDS011;1020;48.854;8.830;2023-06-04T01:35:49;4.40;;;4.00;;
2029;SDS011;1020;48.854;8.830;2023-06-04T01:38:16;5.10;;;4.70;;
2029;SDS011;1020;48.854;8.830;2023-06-04T01:40:43;5.20;;;4.70;;
2029;SDS011;1020;48.854;8.830;2023-06-04T01:43:09;4.03;;;3.67;;
2029;SDS011;1020;48.854;8.830;2023-06-04T01:45:38;4.60;;;4.20;;
2029;SDS011;1020;48.854;8.830;2023-06-04T01:48:05;4.83;;;4.40;;
2029;SDS011;1020;48.854;8.830;2023-06-04T01:50:32;4.07;;;3.77;;
2029;SDS011;1020;48.854;8.830;2023-06-04T01:52:59;6.13;;;4.30;;
2029;SDS011;1020;48.854;8.830;2023-06-04T01:55:26;5.20;;;4.70;;
2029;SDS011;1020;48.854;8.830;2023-06-04T01:57:54;4.67;;;4.30;;
2029;SDS011;1020;48.854;8.830;2023-06-04T02:00:21;5.37;;;4.07;;
2029;SDS011;1020;48.854;8.830;2023-06-04T02:02:50;5.00;;;3.87;;
2029;SDS011;1020;48.854;8.830;2023-06-04T02:05:16;4.60;;;3.80;;
2029;SDS011;1020;48.854;8.830;2023-06-04T02:07:44;4.53;;;4.13;;
2029;SDS011;1020;48.854;8.830;2023-06-04T02:10:13;4.30;;;4.00;;
2029;SDS011;1020;48.854;8.830;2023-06-04T02:12:51;3.37;;;3.17;;
2029;SDS011;1020;48.854;8.830;2023-06-04T02:15:19;4.73;;;4.33;;
2029;SDS011;1020;48.854;8.830;2023-06-04T02:17:47;4.10;;;3.80;;
2029;SDS011;1020;48.854;8.830;2023-06-04T02:20:17;5.07;;;4.63;;
2029;SDS011;1020;48.854;8.830;2023-06-04T02:22:43;4.93;;;4.37;;
2029;SDS011;1020;48.854;8.830;2023-06-04T02:25:10;4.20;;;3.80;;
2029;SDS011;1020;48.854;8.830;2023-06-04T02:27:37;4.80;;;4.40;;
2029;SDS011;1020;48.854;8.830;2023-06-04T02:30:04;5.03;;;4.40;;
2029;SDS011;1020;48.854;8.830;2023-06-04T02:32:32;5.87;;;5.30;;
2029;SDS011;1020;48.854;8.830;2023-06-04T02:35:01;4.63;;;4.27;;
2029;SDS011;1020;48.854;8.830;2023-06-04T02:37:29;4.13;;;3.83;;
2029;SDS011;1020;48.854;8.830;2023-06-04T02:39:56;4.70;;;4.30;;
2029;SDS011;1020;48.854;8.830;2023-06-04T02:42:23;5.60;;;4.43;;
2029;SDS011;1020;48.854;8.830;2023-06-04T02:44:50;4.97;;;4.40;;
2029;SDS011;1020;48.854;8.830;2023-06-04T02:47:16;3.77;;;3.33;;
2029;SDS011;1020;48.854;8.830;2023-06-04T02:49:44;4.00;;;3.70;;
2029;SDS011;1020;48.854;8.830;2023-06-04T02:52:11;4.27;;;3.90;;
2029;SDS011;1020;48.854;8.830;2023-06-04T02:54:39;4.20;;;3.90;;
2029;SDS011;1020;48.854;8.830;2023-06-04T02:57:06;4.23;;;3.30;;
2029;SDS011;1020;48.854;8.830;2023-06-04T02:59:34;4.53;;;3.17;;
2029;SDS011;1020;48.854;8.830;2023-06-04T03:02:01;4.00;;;3.70;;
2029;SDS011;1020;48.854;8.830;2023-06-04T03:04:28;5.20;;;4.00;;
2029;SDS011;1020;48.854;8.830;2023-06-04T03:06:59;5.47;;;3.63;;
2029;SDS011;1020;48.854;8.830;2023-06-04T03:09:27;3.70;;;3.50;;
2029;SDS011;1020;48.854;8.830;2023-06-04T03:11:56;3.70;;;3.40;;
2029;SDS011;1020;48.854;8.830;2023-06-04T03:14:25;3.77;;;3.47;;
2029;SDS011;1020;48.854;8.830;2023-06-04T03:16:57;3.70;;;3.27;;
2029;SDS011;1020;48.854;8.830;2023-06-04T03:19:26;4.90;;;3.60;;
2029;SDS011;1020;48.854;8.830;2023-06-04T03:21:52;3.57;;;3.27;;
2029;SDS011;1020;48.854;8.830;2023-06-04T03:24:19;3.60;;;3.30;;
2029;SDS011;1020;48.854;8.830;2023-06-04T03:26:46;3.50;;;3.20;;
2029;SDS011;1020;48.854;8.830;2023-06-04T03:29:14;3.00;;;2.80;;
2029;SDS011;1020;48.854;8.830;2023-06-04T03:31:43;3.17;;;2.87;;
2029;SDS011;1020;48.854;8.830;2023-06-04T03:34:10;3.23;;;2.90;;
2029;SDS011;1020;48.854;8.830;2023-06-04T03:36:37;3.30;;;2.97;;
2029;SDS011;1020;48.854;8.830;2023-06-04T03:39:04;3.27;;;2.90;;
2029;SDS011;1020;48.854;8.830;2023-06-04T03:41:31;3.53;;;3.20;;
2029;SDS011;1020;48.854;8.830;2023-06-04T03:43:57;3.40;;;3.17;;
2029;SDS011;1020;48.854;8.830;2023-06-04T03:46:25;6.40;;;3.50;;
2029;SDS011;1020;48.854;8.830;2023-06-04T03:48:56;3.50;;;3.20;;
2029;SDS011;1020;48.854;8.830;2023-06-04T03:51:23;2.70;;;2.50;;
2029;SDS011;1020;48.854;8.830;2023-06-04T03:53:50;4.60;;;3.30;;
2029;SDS011;1020;48.854;8.830;2023-06-04T03:56:17;4.23;;;3.23;;
2029;SDS011;1020;48.854;8.830;2023-06-04T03:58:43;3.27;;;3.03;;
2029;SDS011;1020;48.854;8.830;2023-06-04T04:01:11;3.80;;;3.37;;
2029;SDS011;1020;48.854;8.830;2023-06-04T04:03:39;6.60;;;3.27;;
2029;SDS011;1020;48.854;8.830;2023-06-04T04:06:09;3.93;;;3.63;;
2029;SDS011;1020;48.854;8.830;2023-06-04T04:08:36;3.40;;;3.20;;
2029;SDS011;1020;48.854;8.830;2023-06-04T04:11:07;4.10;;;3.23;;
2029;SDS011;1020;48.854;8.830;2023-06-04T04:13:33;3.00;;;2.80;;
2029;SDS011;1020;48.854;8.830;2023-06-04T04:16:00;2.70;;;2.50;;
2029;SDS011;1020;48.854;8.830;2023-06-04T04:18:27;3.73;;;2.60;;
2029;SDS011;1020;48.854;8.830;2023-06-04T04:20:55;4.00;;;3.57;;
2029;SDS011;1020;48.854;8.830;2023-06-04T04:23:22;3.00;;;2.80;;
2029;SDS011;1020;48.854;8.830;2023-06-04T04:25:50;4.27;;;2.70;;
2029;SDS011;1020;48.854;8.830;2023-06-04T04:28:17;4.00;;;3.60;;
2029;SDS011;1020;48.854;8.830;2023-06-04T04:30:44;3.00;;;2.70;;
2029;SDS011;1020;48.854;8.830;2023-06-04T04:33:12;3.67;;;3.37;;
2029;SDS011;1020;48.854;8.830;2023-06-04T04:35:40;3.67;;;3.37;;
2029;SDS011;1020;48.854;8.830;2023-06-04T04:38:10;3.73;;;2.80;;
2029;SDS011;1020;48.854;8.830;2023-06-04T04:40:38;4.80;;;2.60;;
2029;SDS011;1020;48.854;8.830;2023-06-04T04:43:04;3.07;;;2.77;;
2029;SDS011;1020;48.854;8.830;2023-06-04T04:45:31;2.83;;;2.63;;
2029;SDS011;1020;48.854;8.830;2023-06-04T04:47:58;3.40;;;3.20;;
2029;SDS011;1020;48.854;8.830;2023-06-04T04:50:24;3.10;;;2.90;;
2029;SDS011;1020;48.854;8.830;2023-06-04T04:52:51;3.23;;;3.03;;
2029;SDS011;1020;48.854;8.830;2023-06-04T04:55:19;4.20;;;3.10;;
2029;SDS011;1020;48.854;8.830;2023-06-04T04:57:46;3.10;;;2.90;;
2029;SDS011;1020;48.854;8.830;2023-06-04T05:00:13;2.77;;;2.57;;
2029;SDS011;1020;48.854;8.830;2023-06-04T05:02:41;2.70;;;2.30;;
2029;SDS011;1020;48.854;8.830;2023-06-04T05:05:08;2.77;;;2.57;;
2029;SDS011;1020;48.854;8.830;2023-06-04T05:07:35;2.73;;;2.63;;
2029;SDS011;1020;48.854;8.830;2023-06-04T05:10:02;5.03;;;2.50;;
2029;SDS011;1020;48.854;8.830;2023-06-04T05:12:31;2.27;;;2.17;;
2029;SDS011;1020;48.854;8.830;2023-06-04T05:14:57;3.23;;;2.93;;
2029;SDS011;1020;48.854;8.830;2023-06-04T05:17:24;2.33;;;2.23;;
2029;SDS011;1020;48.854;8.830;2023-06-04T05:19:55;3.13;;;2.70;;
2029;SDS011;1020;48.854;8.830;2023-06-04T05:22:30;2.70;;;2.50;;
2029;SDS011;1020;48.854;8.830;2023-06-04T05:24:58;2.60;;;2.40;;
2029;SDS011;1020;48.854;8.830;2023-06-04T05:27:25;2.87;;;2.67;;
2029;SDS011;1020;48.854;8.830;2023-06-04T05:29:54;3.10;;;2.80;;
2029;SDS011;1020;48.854;8.830;2023-06-04T05:32:21;2.57;;;2.37;;
2029;SDS011;1020;48.854;8.830;2023-06-04T05:34:48;3.33;;;3.10;;
2029;SDS011;1020;48.854;8.830;2023-06-04T05:37:15;2.60;;;2.27;;
2029;SDS011;1020;48.854;8.830;2023-06-04T05:39:42;3.23;;;2.53;;
2029;SDS011;1020;48.854;8.830;2023-06-04T05:42:09;2.60;;;1.93;;
2029;SDS011;1020;48.854;8.830;2023-06-04T05:44:36;4.30;;;2.40;;
2029;SDS011;1020;48.854;8.830;2023-06-04T05:47:04;5.10;;;2.60;;
2029;SDS011;1020;48.854;8.830;2023-06-04T05:49:33;2.90;;;2.00;;
2029;SDS011;1020;48.854;8.830;2023-06-04T05:52:00;3.27;;;2.07;;
2029;SDS011;1020;48.854;8.830;2023-06-04T05:54:28;3.20;;;2.40;;
2029;SDS011;1020;48.854;8.830;2023-06-04T05:56:55;2.57;;;2.40;;
2029;SDS011;1020;48.854;8.830;2023-06-04T05:59:22;3.43;;;2.07;;
2029;SDS011;1020;48.854;8.830;2023-06-04T06:01:49;2.40;;;2.10;;
2029;SDS011;1020;48.854;8.830;2023-06-04T06:04:17;3.43;;;2.10;;
2029;SDS011;1020;48.854;8.830;2023-06-04T06:06:44;4.93;;;2.37;;
2029;SDS011;1020;48.854;8.830;2023-06-04T06:09:13;2.30;;;1.90;;
2029;SDS011;1020;48.854;8.830;2023-06-04T06:11:41;2.53;;;1.90;;
2029;SDS011;1020;48.854;8.830;2023-06-04T06:14:08;2.73;;;2.53;;
2029;SDS011;1020;48.854;8.830;2023-06-04T06:16:35;4.03;;;2.03;;
2029;SDS011;1020;48.854;8.830;2023-06-04T06:19:02;2.67;;;2.47;;
2029;SDS011;1020;48.854;8.830;2023-06-04T06:21:31;2.60;;;2.00;;
2029;SDS011;1020;48.854;8.830;2023-06-04T06:23:58;3.57;;;2.30;;
2029;SDS011;1020;48.854;8.830;2023-06-04T06:26:25;2.10;;;2.00;;
2029;SDS011;1020;48.854;8.830;2023-06-04T06:28:51;3.27;;;2.20;;
2029;SDS011;1020;48.854;8.830;2023-06-04T06:31:18;3.80;;;2.20;;
2029;SDS011;1020;48.854;8.830;2023-06-04T06:33:45;5.73;;;2.43;;
2029;SDS011;1020;48.854;8.830;2023-06-04T06:36:12;2.73;;;2.33;;
2029;SDS011;1020;48.854;8.830;2023-06-04T06:38:40;2.40;;;2.20;;
2029;SDS011;1020;48.854;8.830;2023-06-04T06:41:07;2.70;;;1.93;;
2029;SDS011;1020;48.854;8.830;2023-06-04T06:43:34;2.73;;;2.00;;
2029;SDS011;1020;48.854;8.830;2023-06-04T06:46:00;2.37;;;2.00;;
2029;SDS011;1020;48.854;8.830;2023-06-04T06:48:27;2.00;;;1.90;;
2029;SDS011;1020;48.854;8.830;2023-06-04T06:50:54;2.30;;;2.00;;
2029;SDS011;1020;48.854;8.830;2023-06-04T06:53:21;2.80;;;2.27;;
2029;SDS011;1020;48.854;8.830;2023-06-04T06:55:49;2.67;;;2.47;;
2029;SDS011;1020;48.854;8.830;2023-06-04T06:58:16;2.33;;;2.13;;
2029;SDS011;1020;48.854;8.830;2023-06-04T07:00:43;3.43;;;1.90;;
2029;SDS011;1020;48.854;8.830;2023-06-04T07:03:09;2.27;;;2.07;;
2029;SDS011;1020;48.854;8.830;2023-06-04T07:05:36;4.57;;;2.23;;
2029;SDS011;1020;48.854;8.830;2023-06-04T07:08:03;3.67;;;2.50;;
2029;SDS011;1020;48.854;8.830;2023-06-04T07:10:30;4.40;;;2.13;;
2029;SDS011;1020;48.854;8.830;2023-06-04T07:12:58;2.57;;;2.00;;
2029;SDS011;1020;48.854;8.830;2023-06-04T07:15:25;5.20;;;2.10;;
2029;SDS011;1020;48.854;8.830;2023-06-04T07:17:52;2.10;;;2.00;;
2029;SDS011;1020;48.854;8.830;2023-06-04T07:20:18;2.87;;;2.37;;
2029;SDS011;1020;48.854;8.830;2023-06-04T07:22:45;2.27;;;2.10;;
2029;SDS011;1020;48.854;8.830;2023-06-04T07:25:12;3.83;;;2.47;;
2029;SDS011;1020;48.854;8.830;2023-06-04T07:27:39;2.80;;;2.10;;
2029;SDS011;1020;48.854;8.830;2023-06-04T07:30:08;2.53;;;2.33;;
2029;SDS011;1020;48.854;8.830;2023-06-04T07:32:36;2.40;;;2.20;;
2029;SDS011;1020;48.854;8.830;2023-06-04T07:35:02;2.27;;;2.13;;
2029;SDS011;1020;48.854;8.830;2023-06-04T07:37:29;2.77;;;2.40;;
2029;SDS011;1020;48.854;8.830;2023-06-04T07:39:56;2.40;;;2.23;;
2029;SDS011;1020;48.854;8.830;2023-06-04T07:42:23;2.50;;;2.30;;
2029;SDS011;1020;48.854;8.830;2023-06-04T07:44:50;2.80;;;2.50;;
2029;SDS011;1020;48.854;8.830;2023-06-04T07:47:18;3.83;;;2.30;;
2029;SDS011;1020;48.854;8.830;2023-06-04T07:49:45;2.90;;;2.60;;
2029;SDS011;1020;48.854;8.830;2023-06-04T07:52:12;4.60;;;2.47;;
2029;SDS011;1020;48.854;8.830;2023-06-04T07:54:39;3.13;;;2.83;;
2029;SDS011;1020;48.854;8.830;2023-06-04T07:57:06;3.00;;;2.70;;
2029;SDS011;1020;48.854;8.830;2023-06-04T07:59:33;3.27;;;2.97;;
2029;SDS011;1020;48.854;8.830;2023-06-04T08:02:00;2.53;;;2.30;;
2029;SDS011;1020;48.854;8.830;2023-06-04T08:04:28;2.90;;;2.60;;
2029;SDS011;1020;48.854;8.830;2023-06-04T08:06:55;3.50;;;2.50;;
2029;SDS011;1020;48.854;8.830;2023-06-04T08:09:22;3.60;;;2.93;;
2029;SDS011;1020;48.854;8.830;2023-06-04T08:11:49;3.00;;;2.40;;
2029;SDS011;1020;48.854;8.830;2023-06-04T08:14:16;2.50;;;2.10;;
2029;SDS011;1020;48.854;8.830;2023-06-04T08:16:45;3.10;;;2.57;;
2029;SDS011;1020;48.854;8.830;2023-06-04T08:19:11;4.30;;;2.73;;
2029;SDS011;1020;48.854;8.830;2023-06-04T08:21:40;2.20;;;2.10;;
2029;SDS011;1020;48.854;8.830;2023-06-04T08:24:09;4.77;;;2.63;;
2029;SDS011;1020;48.854;8.830;2023-06-04T08:26:36;2.60;;;2.40;;
2029;SDS011;1020;48.854;8.830;2023-06-04T08:29:03;2.20;;;1.93;;
2029;SDS011;1020;48.854;8.830;2023-06-04T08:31:30;2.63;;;2.43;;
2029;SDS011;1020;48.854;8.830;2023-06-04T08:33:57;2.27;;;2.00;;
2029;SDS011;1020;48.854;8.830;2023-06-04T08:36:24;2.50;;;2.00;;
2029;SDS011;1020;48.854;8.830;2023-06-04T08:38:52;2.60;;;2.40;;
2029;SDS011;1020;48.854;8.830;2023-06-04T08:41:28;2.73;;;2.53;;
2029;SDS011;1020;48.854;8.830;2023-06-04T08:43:58;2.80;;;2.60;;
2029;SDS011;1020;48.854;8.830;2023-06-04T08:46:26;3.10;;;2.30;;
2029;SDS011;1020;48.854;8.830;2023-06-04T08:48:54;2.00;;;1.80;;
2029;SDS011;1020;48.854;8.830;2023-06-04T08:51:25;2.33;;;2.13;;
2029;SDS011;1020;48.854;8.830;2023-06-04T08:53:53;3.27;;;2.03;;
2029;SDS011;1020;48.854;8.830;2023-06-04T08:56:22;3.13;;;2.40;;
2029;SDS011;1020;48.854;8.830;2023-06-04T08:58:49;2.73;;;2.10;;
2029;SDS011;1020;48.854;8.830;2023-06-04T09:01:17;2.40;;;2.20;;
2029;SDS011;1020;48.854;8.830;2023-06-04T09:03:44;2.27;;;2.10;;
2029;SDS011;1020;48.854;8.830;2023-06-04T09:06:11;1.80;;;1.70;;
2029;SDS011;1020;48.854;8.830;2023-06-04T09:08:38;3.33;;;2.17;;
2029;SDS011;1020;48.854;8.830;2023-06-04T09:11:10;2.33;;;2.13;;
2029;SDS011;1020;48.854;8.830;2023-06-04T09:13:39;2.17;;;2.07;;
2029;SDS011;1020;48.854;8.830;2023-06-04T09:16:09;2.70;;;2.13;;
2029;SDS011;1020;48.854;8.830;2023-06-04T09:18:36;5.03;;;2.20;;
2029;SDS011;1020;48.854;8.830;2023-06-04T09:21:03;2.30;;;2.20;;
2029;SDS011;1020;48.854;8.830;2023-06-04T09:23:31;2.40;;;2.20;;
2029;SDS011;1020;48.854;8.830;2023-06-04T09:26:06;2.63;;;2.27;;
2029;SDS011;1020;48.854;8.830;2023-06-04T09:28:35;1.93;;;1.83;;
2029;SDS011;1020;48.854;8.830;2023-06-04T09:31:02;2.23;;;2.13;;
2029;SDS011;1020;48.854;8.830;2023-06-04T09:33:29;3.23;;;2.63;;
2029;SDS011;1020;48.854;8.830;2023-06-04T09:35:55;2.43;;;2.23;;
2029;SDS011;1020;48.854;8.830;2023-06-04T09:38:23;2.20;;;2.10;;
2029;SDS011;1020;48.854;8.830;2023-06-04T09:40:50;2.20;;;2.00;;
2029;SDS011;1020;48.854;8.830;2023-06-04T09:43:22;3.00;;;2.40;;
2029;SDS011;1020;48.854;8.830;2023-06-04T09:45:51;5.33;;;2.10;;
2029;SDS011;1020;48.854;8.830;2023-06-04T09:48:21;2.73;;;2.53;;
2029;SDS011;1020;48.854;8.830;2023-06-04T09:50:48;2.67;;;2.47;;
2029;SDS011;1020;48.854;8.830;2023-06-04T09:53:15;2.73;;;2.53;;
2029;SDS011;1020;48.854;8.830;2023-06-04T09:55:55;2.80;;;2.60;;
2029;SDS011;1020;48.854;8.830;2023-06-04T09:58:22;2.93;;;2.63;;
2029;SDS011;1020;48.854;8.830;2023-06-04T10:00:52;2.70;;;2.50;;
2029;SDS011;1020;48.854;8.830;2023-06-04T10:03:22;2.53;;;2.30;;
2029;SDS011;1020;48.854;8.830;2023-06-04T10:05:53;3.03;;;2.00;;
2029;SDS011;1020;48.854;8.830;2023-06-04T10:08:21;2.70;;;2.50;;
2029;SDS011;1020;48.854;8.830;2023-06-04T10:10:48;2.57;;;2.37;;
2029;SDS011;1020;48.854;8.830;2023-06-04T10:13:18;2.30;;;2.20;;
2029;SDS011;1020;48.854;8.830;2023-06-04T10:15:46;2.80;;;2.57;;
2029;SDS011;1020;48.854;8.830;2023-06-04T10:18:14;2.10;;;2.00;;
2029;SDS011;1020;48.854;8.830;2023-06-04T10:20:41;2.60;;;2.40;;
2029;SDS011;1020;48.854;8.830;2023-06-04T10:23:08;2.80;;;2.60;;
2029;SDS011;1020;48.854;8.830;2023-06-04T10:25:35;2.93;;;2.13;;
2029;SDS011;1020;48.854;8.830;2023-06-04T10:28:02;3.03;;;2.83;;
2029;SDS011;1020;48.854;8.830;2023-06-04T10:30:30;3.53;;;2.37;;
2029;SDS011;1020;48.854;8.830;2023-06-04T10:32:57;2.30;;;2.10;;
2029;SDS011;1020;48.854;8.830;2023-06-04T10:35:32;2.77;;;2.43;;
2029;SDS011;1020;48.854;8.830;2023-06-04T10:38:06;2.70;;;2.50;;
2029;SDS011;1020;48.854;8.830;2023-06-04T10:40:34;2.80;;;2.60;;
2029;SDS011;1020;48.854;8.830;2023-06-04T10:43:04;2.20;;;2.10;;
2029;SDS011;1020;48.854;8.830;2023-06-04T10:45:31;2.67;;;2.30;;
2029;SDS011;1020;48.854;8.830;2023-06-04T10:48:01;2.33;;;2.10;;
2029;SDS011;1020;48.854;8.830;2023-06-04T10:50:29;2.57;;;2.37;;
2029;SDS011;1020;48.854;8.830;2023-06-04T10:52:58;2.53;;;2.33;;
2029;SDS011;1020;48.854;8.830;2023-06-04T10:55:28;2.10;;;2.00;;
2029;SDS011;1020;48.854;8.830;2023-06-04T10:57:56;3.37;;;2.90;;
2029;SDS011;1020;48.854;8.830;2023-06-04T11:00:34;2.63;;;2.47;;
2029;SDS011;1020;48.854;8.830;2023-06-04T11:03:01;2.50;;;2.40;;
2029;SDS011;1020;48.854;8.830;2023-06-04T11:05:33;2.17;;;1.97;;
2029;SDS011;1020;48.854;8.830;2023-06-04T11:08:02;3.10;;;2.50;;
2029;SDS011;1020;48.854;8.830;2023-06-04T11:10:31;2.27;;;2.17;;
2029;SDS011;1020;48.854;8.830;2023-06-04T11:12:59;2.53;;;2.33;;
2029;SDS011;1020;48.854;8.830;2023-06-04T11:15:26;2.80;;;2.60;;
2029;SDS011;1020;48.854;8.830;2023-06-04T11:18:04;3.73;;;2.53;;
2029;SDS011;1020;48.854;8.830;2023-06-04T11:20:31;2.57;;;2.47;;
2029;SDS011;1020;48.854;8.830;2023-06-04T11:22:58;3.83;;;2.50;;
2029;SDS011;1020;48.854;8.830;2023-06-04T11:25:29;3.30;;;3.00;;
2029;SDS011;1020;48.854;8.830;2023-06-04T11:27:58;2.87;;;2.70;;
2029;SDS011;1020;48.854;8.830;2023-06-04T11:30:26;2.53;;;2.33;;
2029;SDS011;1020;48.854;8.830;2023-06-04T11:33:00;3.13;;;2.93;;
2029;SDS011;1020;48.854;8.830;2023-06-04T11:35:28;2.70;;;2.17;;
2029;SDS011;1020;48.854;8.830;2023-06-04T11:37:55;3.00;;;2.70;;
2029;SDS011;1020;48.854;8.830;2023-06-04T11:40:23;4.07;;;3.67;;
2029;SDS011;1020;48.854;8.830;2023-06-04T11:42:53;4.50;;;2.70;;
2029;SDS011;1020;48.854;8.830;2023-06-04T11:45:21;3.33;;;3.00;;
2029;SDS011;1020;48.854;8.830;2023-06-04T11:47:49;3.43;;;2.30;;
2029;SDS011;1020;48.854;8.830;2023-06-04T11:50:17;3.33;;;2.70;;
2029;SDS011;1020;48.854;8.830;2023-06-04T11:52:44;2.70;;;2.50;;
2029;SDS011;1020;48.854;8.830;2023-06-04T11:55:11;3.17;;;2.50;;
2029;SDS011;1020;48.854;8.830;2023-06-04T11:57:38;6.03;;;2.67;;
2029;SDS011;1020;48.854;8.830;2023-06-04T12:00:08;2.87;;;2.33;;
2029;SDS011;1020;48.854;8.830;2023-06-04T12:02:36;2.77;;;2.57;;
2029;SDS011;1020;48.854;8.830;2023-06-04T12:05:12;2.93;;;2.57;;
2029;SDS011;1020;48.854;8.830;2023-06-04T12:07:40;3.03;;;2.37;;
2029;SDS011;1020;48.854;8.830;2023-06-04T12:10:07;2.33;;;2.07;;
2029;SDS011;1020;48.854;8.830;2023-06-04T12:12:36;2.80;;;2.60;;
2029;SDS011;1020;48.854;8.830;2023-06-04T12:15:05;2.37;;;2.17;;
2029;SDS011;1020;48.854;8.830;2023-06-04T12:17:35;2.60;;;2.40;;
2029;SDS011;1020;48.854;8.830;2023-06-04T12:20:02;3.30;;;3.00;;
2029;SDS011;1020;48.854;8.830;2023-06-04T12:22:30;3.47;;;2.50;;
2029;SDS011;1020;48.854;8.830;2023-06-04T12:24:57;3.73;;;2.23;;
2029;SDS011;1020;48.854;8.830;2023-06-04T12:27:27;2.53;;;2.33;;
2029;SDS011;1020;48.854;8.830;2023-06-04T12:29:55;3.27;;;2.50;;
2029;SDS011;1020;48.854;8.830;2023-06-04T12:32:26;2.60;;;2.40;;
2029;SDS011;1020;48.854;8.830;2023-06-04T12:34:53;2.93;;;2.57;;
2029;SDS011;1020;48.854;8.830;2023-06-04T12:37:21;4.73;;;2.53;;
2029;SDS011;1020;48.854;8.830;2023-06-04T12:39:50;2.70;;;2.50;;
2029;SDS011;1020;48.854;8.830;2023-06-04T12:42:17;2.50;;;2.30;;
2029;SDS011;1020;48.854;8.830;2023-06-04T12:44:45;3.47;;;2.93;;
2029;SDS011;1020;48.854;8.830;2023-06-04T12:47:12;2.70;;;2.50;;
2029;SDS011;1020;48.854;8.830;2023-06-04T12:49:41;3.23;;;2.93;;
2029;SDS011;1020;48.854;8.830;2023-06-04T12:52:07;2.40;;;2.30;;
2029;SDS011;1020;48.854;8.830;2023-06-04T12:54:34;2.93;;;2.73;;
2029;SDS011;1020;48.854;8.830;2023-06-04T12:57:01;3.43;;;3.00;;
2029;SDS011;1020;48.854;8.830;2023-06-04T12:59:28;4.40;;;2.67;;
2029;SDS011;1020;48.854;8.830;2023-06-04T13:01:55;5.27;;;2.87;;
2029;SDS011;1020;48.854;8.830;2023-06-04T13:04:22;2.30;;;2.20;;
2029;SDS011;1020;48.854;8.830;2023-06-04T13:06:51;2.97;;;2.77;;
2029;SDS011;1020;48.854;8.830;2023-06-04T13:09:20;3.50;;;2.77;;
2029;SDS011;1020;48.854;8.830;2023-06-04T13:11:48;3.43;;;3.10;;
2029;SDS011;1020;48.854;8.830;2023-06-04T13:14:15;2.77;;;2.57;;
2029;SDS011;1020;48.854;8.830;2023-06-04T13:16:42;4.70;;;3.30;;
2029;SDS011;1020;48.854;8.830;2023-06-04T13:19:10;2.77;;;2.57;;
2029;SDS011;1020;48.854;8.830;2023-06-04T13:21:37;2.53;;;2.43;;
2029;SDS011;1020;48.854;8.830;2023-06-04T13:24:06;4.27;;;2.77;;
2029;SDS011;1020;48.854;8.830;2023-06-04T13:26:36;3.50;;;3.20;;
2029;SDS011;1020;48.854;8.830;2023-06-04T13:29:03;2.30;;;2.20;;
2029;SDS011;1020;48.854;8.830;2023-06-04T13:31:30;2.43;;;2.23;;
2029;SDS011;1020;48.854;8.830;2023-06-04T13:33:57;2.60;;;2.40;;
2029;SDS011;1020;48.854;8.830;2023-06-04T13:36:24;2.37;;;2.10;;
2029;SDS011;1020;48.854;8.830;2023-06-04T13:38:51;2.43;;;2.33;;
2029;SDS011;1020;48.854;8.830;2023-06-04T13:41:21;3.10;;;2.80;;
2029;SDS011;1020;48.854;8.830;2023-06-04T13:43:47;3.33;;;3.07;;
2029;SDS011;1020;48.854;8.830;2023-06-04T13:46:14;3.10;;;2.67;;
2029;SDS011;1020;48.854;8.830;2023-06-04T13:48:41;4.10;;;2.73;;
2029;SDS011;1020;48.854;8.830;2023-06-04T13:51:08;2.80;;;2.60;;
2029;SDS011;1020;48.854;8.830;2023-06-04T13:53:35;2.83;;;2.57;;
2029;SDS011;1020;48.854;8.830;2023-06-04T13:56:02;2.90;;;2.70;;
2029;SDS011;1020;48.854;8.830;2023-06-04T13:58:30;3.20;;;2.33;;
2029;SDS011;1020;48.854;8.830;2023-06-04T14:00:57;2.50;;;2.40;;
2029;SDS011;1020;48.854;8.830;2023-06-04T14:03:23;2.87;;;2.67;;
2029;SDS011;1020;48.854;8.830;2023-06-04T14:05:50;3.03;;;2.80;;
2029;SDS011;1020;48.854;8.830;2023-06-04T14:08:17;3.47;;;2.80;;
2029;SDS011;1020;48.854;8.830;2023-06-04T14:10:43;2.63;;;2.53;;
2029;SDS011;1020;48.854;8.830;2023-06-04T14:13:10;2.80;;;2.60;;
2029;SDS011;1020;48.854;8.830;2023-06-04T14:15:38;3.07;;;2.37;;
2029;SDS011;1020;48.854;8.830;2023-06-04T14:18:05;3.67;;;2.47;;
2029;SDS011;1020;48.854;8.830;2023-06-04T14:20:33;2.97;;;2.77;;
2029;SDS011;1020;48.854;8.830;2023-06-04T14:22:59;3.80;;;2.57;;
2029;SDS011;1020;48.854;8.830;2023-06-04T14:25:26;3.13;;;2.93;;
2029;SDS011;1020;48.854;8.830;2023-06-04T14:27:53;2.67;;;2.27;;
2029;SDS011;1020;48.854;8.830;2023-06-04T14:30:20;3.03;;;2.43;;
2029;SDS011;1020;48.854;8.830;2023-06-04T14:32:48;3.20;;;3.00;;
2029;SDS011;1020;48.854;8.830;2023-06-04T14:35:15;3.77;;;3.00;;
2029;SDS011;1020;48.854;8.830;2023-06-04T14:37:41;5.00;;;3.27;;
2029;SDS011;1020;48.854;8.830;2023-06-04T14:40:08;3.70;;;2.90;;
2029;SDS011;1020;48.854;8.830;2023-06-04T14:42:36;3.83;;;3.03;;
2029;SDS011;1020;48.854;8.830;2023-06-04T14:45:02;3.57;;;3.27;;
2029;SDS011;1020;48.854;8.830;2023-06-04T14:47:30;3.97;;;3.43;;
2029;SDS011;1020;48.854;8.830;2023-06-04T14:49:58;3.53;;;3.20;;
2029;SDS011;1020;48.854;8.830;2023-06-04T14:52:24;4.20;;;2.83;;
2029;SDS011;1020;48.854;8.830;2023-06-04T14:54:52;3.07;;;2.87;;
2029;SDS011;1020;48.854;8.830;2023-06-04T14:57:19;3.83;;;2.90;;
2029;SDS011;1020;48.854;8.830;2023-06-04T14:59:47;3.53;;;3.00;;
2029;SDS011;1020;48.854;8.830;2023-06-04T15:02:14;3.00;;;2.80;;
2029;SDS011;1020;48.854;8.830;2023-06-04T15:04:44;3.70;;;3.10;;
2029;SDS011;1020;48.854;8.830;2023-06-04T15:07:12;3.27;;;2.83;;
2029;SDS011;1020;48.854;8.830;2023-06-04T15:09:39;3.50;;;3.20;;
2029;SDS011;1020;48.854;8.830;2023-06-04T15:12:06;5.27;;;4.97;;
2029;SDS011;1020;48.854;8.830;2023-06-04T15:14:33;4.13;;;3.83;;
2029;SDS011;1020;48.854;8.830;2023-06-04T15:16:59;5.07;;;4.77;;
2029;SDS011;1020;48.854;8.830;2023-06-04T15:19:26;4.20;;;3.90;;